sensor_id;sensor_type;location;lat;lon;timestamp;pressure;altitude;pressure_sealevel;temperature;humidity
26320;BME280;14024;52.226;5.200;2024-03-06T00:02:10;101816.09;;;7.10;100.00
26320;BME280;14024;52.226;5.200;2024-03-06T00:04:36;101815.19;;;7.11;100.00
26320;BME280;14024;52.226;5.200;2024-03-06T00:07:01;101817.84;;;7.11;100.00
26320;BME280;14024;52.226;5.200;2024-03-06T00:09:27;101823.09;;;7.11;100.00
26320;BME280;14024;52.226;5.200;2024-03-06T00:11:53;101820.50;;;7.08;100.00
26320;BME280;14024;52.226;5.200;2024-03-06T00:14:19;101827.59;;;7.06;100.00
26320;BME280;14024;52.226;5.200;2024-03-06T00:16:50;101837.28;;;7.05;100.00
26320;BME280;14024;52.226;5.200;2024-03-06T00:19:19;101839.94;;;7.04;100.00
26320;BME280;14024;52.226;5.200;2024-03-06T00:21:45;101840.81;;;7.03;100.00
26320;BME280;14024;52.226;5.200;2024-03-06T00:24:12;101842.56;;;7.04;100.00
26320;BME280;14024;52.226;5.200;2024-03-06T00:26:40;101844.22;;;7.08;100.00
26320;BME280;14024;52.226;5.200;2024-03-06T00:29:05;101844.31;;;7.05;100.00
26320;BME280;14024;52.226;5.200;2024-03-06T00:31:31;101849.56;;;7.05;100.00
26320;BME280;14024;52.226;5.200;2024-03-06T00:33:57;101849.56;;;7.05;100.00
26320;BME280;14024;52.226;5.200;2024-03-06T00:36:22;101850.34;;;7.10;100.00
26320;BME280;14024;52.226;5.200;2024-03-06T00:38:48;101845.91;;;7.12;100.00
26320;BME280;14024;52.226;5.200;2024-03-06T00:41:13;101849.47;;;7.11;100.00
26320;BME280;14024;52.226;5.200;2024-03-06T00:43:39;101847.72;;;7.10;100.00
26320;BME280;14024;52.226;5.200;2024-03-06T00:46:04;101853.88;;;7.10;100.00
26320;BME280;14024;52.226;5.200;2024-03-06T00:48:30;101855.63;;;7.10;100.00
26320;BME280;14024;52.226;5.200;2024-03-06T00:50:55;101850.41;;;7.07;100.00
26320;BME280;14024;52.226;5.200;2024-03-06T00:53:20;101854.84;;;7.05;100.00
26320;BME280;14024;52.226;5.200;2024-03-06T00:55:46;101844.38;;;7.02;100.00
26320;BME280;14024;52.226;5.200;2024-03-06T00:58:11;101854.06;;;7.00;100.00
26320;BME280;14024;52.226;5.200;2024-03-06T01:00:37;101852.38;;;6.97;100.00
26320;BME280;14024;52.226;5.200;2024-03-06T01:03:03;101855.91;;;6.95;100.00
26320;BME280;14024;52.226;5.200;2024-03-06T01:05:29;101859.41;;;6.97;100.00
26320;BME280;14024;52.226;5.200;2024-03-06T01:07:54;101860.31;;;6.96;100.00
26320;BME280;14024;52.226;5.200;2024-03-06T01:10:19;101862.94;;;6.96;100.00
26320;BME280;14024;52.226;5.200;2024-03-06T01:12:45;101858.63;;;6.92;100.00
26320;BME280;14024;52.226;5.200;2024-03-06T01:15:11;101860.38;;;6.93;100.00
26320;BME280;14024;52.226;5.200;2024-03-06T01:17:36;101865.66;;;6.93;100.00
26320;BME280;14024;52.226;5.200;2024-03-06T01:20:01;101871.00;;;6.88;100.00
26320;BME280;14024;52.226;5.200;2024-03-06T01:22:29;101871.97;;;6.84;100.00
26320;BME280;14024;52.226;5.200;2024-03-06T01:24:54;101878.13;;;6.82;100.00
26320;BME280;14024;52.226;5.200;2024-03-06T01:27:19;101870.31;;;6.79;100.00
26320;BME280;14024;52.226;5.200;2024-03-06T01:29:44;101874.69;;;6.80;100.00
26320;BME280;14024;52.226;5.200;2024-03-06T01:32:10;101875.53;;;6.80;100.00
26320;BME280;14024;52.226;5.200;2024-03-06T01:34:35;101879.16;;;6.75;100.00
26320;BME280;14024;52.226;5.200;2024-03-06T01:37:01;101879.28;;;6.68;100.00
26320;BME280;14024;52.226;5.200;2024-03-06T01:39:26;101876.72;;;6.62;100.00
26320;BME280;14024;52.226;5.200;2024-03-06T01:41:51;101885.56;;;6.61;100.00
26320;BME280;14024;52.226;5.200;2024-03-06T01:44:18;101889.16;;;6.57;100.00
26320;BME280;14024;52.226;5.200;2024-03-06T01:46:44;101884.69;;;6.59;100.00
26320;BME280;14024;52.226;5.200;2024-03-06T01:49:11;101883.81;;;6.60;100.00
26320;BME280;14024;52.226;5.200;2024-03-06T01:51:39;101888.22;;;6.60;100.00
26320;BME280;14024;52.226;5.200;2024-03-06T01:54:04;101888.22;;;6.58;100.00
26320;BME280;14024;52.226;5.200;2024-03-06T01:56:32;101892.59;;;6.59;100.00
26320;BME280;14024;52.226;5.200;2024-03-06T01:58:59;101887.41;;;6.56;100.00
26320;BME280;14024;52.226;5.200;2024-03-06T02:01:25;101883.00;;;6.57;100.00
26320;BME280;14024;52.226;5.200;2024-03-06T02:03:51;101887.44;;;6.53;100.00
26320;BME280;14024;52.226;5.200;2024-03-06T02:06:17;101890.06;;;6.53;100.00
26320;BME280;14024;52.226;5.200;2024-03-06T02:08:48;101885.72;;;6.52;100.00
26320;BME280;14024;52.226;5.200;2024-03-06T02:11:13;101895.34;;;6.53;100.00
26320;BME280;14024;52.226;5.200;2024-03-06T02:13:39;101897.13;;;6.53;100.00
26320;BME280;14024;52.226;5.200;2024-03-06T02:16:05;101891.81;;;6.54;100.00
26320;BME280;14024;52.226;5.200;2024-03-06T02:18:30;101894.44;;;6.54;100.00
26320;BME280;14024;52.226;5.200;2024-03-06T02:20:56;101893.56;;;6.55;100.00
26320;BME280;14024;52.226;5.200;2024-03-06T02:23:21;101889.19;;;6.54;100.00
26320;BME280;14024;52.226;5.200;2024-03-06T02:25:47;101906.75;;;6.54;100.00
26320;BME280;14024;52.226;5.200;2024-03-06T02:28:13;101906.72;;;6.55;100.00
26320;BME280;14024;52.226;5.200;2024-03-06T02:30:39;101917.31;;;6.52;100.00
26320;BME280;14024;52.226;5.200;2024-03-06T02:33:05;101911.22;;;6.49;100.00
26320;BME280;14024;52.226;5.200;2024-03-06T02:35:31;101905.09;;;6.48;100.00
26320;BME280;14024;52.226;5.200;2024-03-06T02:37:59;101901.63;;;6.46;100.00
26320;BME280;14024;52.226;5.200;2024-03-06T02:40:24;101905.06;;;6.50;100.00
26320;BME280;14024;52.226;5.200;2024-03-06T02:42:50;101902.47;;;6.48;100.00
26320;BME280;14024;52.226;5.200;2024-03-06T02:45:15;101902.50;;;6.47;100.00
26320;BME280;14024;52.226;5.200;2024-03-06T02:47:40;101891.94;;;6.47;100.00
26320;BME280;14024;52.226;5.200;2024-03-06T02:50:06;101895.38;;;6.52;100.00
26320;BME280;14024;52.226;5.200;2024-03-06T02:52:32;101899.78;;;6.51;100.00
26320;BME280;14024;52.226;5.200;2024-03-06T02:54:58;101905.88;;;6.53;100.00
26320;BME280;14024;52.226;5.200;2024-03-06T02:57:23;101900.59;;;6.55;100.00
26320;BME280;14024;52.226;5.200;2024-03-06T02:59:51;101902.34;;;6.54;100.00
26320;BME280;14024;52.226;5.200;2024-03-06T03:02:16;101901.53;;;6.52;100.00
26320;BME280;14024;52.226;5.200;2024-03-06T03:04:42;101910.28;;;6.53;100.00
26320;BME280;14024;52.226;5.200;2024-03-06T03:07:07;101903.22;;;6.53;100.00
26320;BME280;14024;52.226;5.200;2024-03-06T03:09:33;101904.19;;;6.49;100.00
26320;BME280;14024;52.226;5.200;2024-03-06T03:11:58;101919.09;;;6.50;100.00
26320;BME280;14024;52.226;5.200;2024-03-06T03:14:24;101916.47;;;6.50;100.00
26320;BME280;14024;52.226;5.200;2024-03-06T03:16:49;101912.16;;;6.46;100.00
26320;BME280;14024;52.226;5.200;2024-03-06T03:19:15;101923.53;;;6.48;100.00
26320;BME280;14024;52.226;5.200;2024-03-06T03:21:44;101912.22;;;6.43;100.00
26320;BME280;14024;52.226;5.200;2024-03-06T03:24:09;101909.66;;;6.37;100.00
26320;BME280;14024;52.226;5.200;2024-03-06T03:26:35;101920.25;;;6.34;100.00
26320;BME280;14024;52.226;5.200;2024-03-06T03:29:02;101923.69;;;6.38;100.00
26320;BME280;14024;52.226;5.200;2024-03-06T03:31:27;101922.84;;;6.37;100.00
26320;BME280;14024;52.226;5.200;2024-03-06T03:33:53;101924.59;;;6.35;100.00
26320;BME280;14024;52.226;5.200;2024-03-06T03:36:18;101917.63;;;6.34;100.00
26320;BME280;14024;52.226;5.200;2024-03-06T03:38:43;101919.41;;;6.32;100.00
26320;BME280;14024;52.226;5.200;2024-03-06T03:41:10;101922.03;;;6.31;100.00
26320;BME280;14024;52.226;5.200;2024-03-06T03:43:40;101920.34;;;6.30;100.00
26320;BME280;14024;52.226;5.200;2024-03-06T03:46:06;101927.38;;;6.27;100.00
26320;BME280;14024;52.226;5.200;2024-03-06T03:48:32;101927.44;;;6.24;100.00
26320;BME280;14024;52.226;5.200;2024-03-06T03:51:00;101933.66;;;6.19;100.00
26320;BME280;14024;52.226;5.200;2024-03-06T03:53:26;101929.34;;;6.13;100.00
26320;BME280;14024;52.226;5.200;2024-03-06T03:55:52;101922.44;;;6.08;100.00
26320;BME280;14024;52.226;5.200;2024-03-06T03:58:18;101926.88;;;6.03;100.00
26320;BME280;14024;52.226;5.200;2024-03-06T04:00:43;101924.22;;;6.04;100.00
26320;BME280;14024;52.226;5.200;2024-03-06T04:03:08;101931.22;;;6.07;100.00
26320;BME280;14024;52.226;5.200;2024-03-06T04:05:33;101932.03;;;6.09;100.00
26320;BME280;14024;52.226;5.200;2024-03-06T04:07:59;101923.31;;;6.07;100.00
26320;BME280;14024;52.226;5.200;2024-03-06T04:10:24;101933.84;;;6.05;100.00
26320;BME280;14024;52.226;5.200;2024-03-06T04:12:50;101934.75;;;6.04;100.00
26320;BME280;14024;52.226;5.200;2024-03-06T04:15:15;101937.38;;;6.06;100.00
26320;BME280;14024;52.226;5.200;2024-03-06T04:17:41;101938.38;;;5.97;100.00
26320;BME280;14024;52.226;5.200;2024-03-06T04:20:07;101946.28;;;5.96;100.00
26320;BME280;14024;52.226;5.200;2024-03-06T04:22:32;101941.00;;;5.96;100.00
26320;BME280;14024;52.226;5.200;2024-03-06T04:24:58;101939.25;;;5.95;100.00
26320;BME280;14024;52.226;5.200;2024-03-06T04:27:24;101933.16;;;5.94;100.00
26320;BME280;14024;52.226;5.200;2024-03-06T04:29:50;101937.56;;;5.94;100.00
26320;BME280;14024;52.226;5.200;2024-03-06T04:32:15;101946.41;;;5.87;100.00
26320;BME280;14024;52.226;5.200;2024-03-06T04:34:41;101943.78;;;5.85;100.00
26320;BME280;14024;52.226;5.200;2024-03-06T04:37:06;101944.63;;;5.85;100.00
26320;BME280;14024;52.226;5.200;2024-03-06T04:39:32;101952.56;;;5.82;100.00
26320;BME280;14024;52.226;5.200;2024-03-06T04:41:57;101954.38;;;5.79;100.00
26320;BME280;14024;52.226;5.200;2024-03-06T04:44:23;101949.22;;;5.71;100.00
26320;BME280;14024;52.226;5.200;2024-03-06T04:46:51;101967.66;;;5.68;100.00
26320;BME280;14024;52.226;5.200;2024-03-06T04:49:16;101969.47;;;5.63;100.00
26320;BME280;14024;52.226;5.200;2024-03-06T04:51:41;101969.53;;;5.59;100.00
26320;BME280;14024;52.226;5.200;2024-03-06T04:54:07;101969.44;;;5.66;100.00
26320;BME280;14024;52.226;5.200;2024-03-06T04:56:32;101973.00;;;5.62;100.00
26320;BME280;14024;52.226;5.200;2024-03-06T04:58:57;101980.16;;;5.51;100.00
26320;BME280;14024;52.226;5.200;2024-03-06T05:01:28;101984.59;;;5.46;100.00
26320;BME280;14024;52.226;5.200;2024-03-06T05:03:54;101983.75;;;5.44;100.00
26320;BME280;14024;52.226;5.200;2024-03-06T05:06:19;101982.00;;;5.43;100.00
26320;BME280;14024;52.226;5.200;2024-03-06T05:08:44;101982.88;;;5.40;100.00
26320;BME280;14024;52.226;5.200;2024-03-06T05:11:10;101989.06;;;5.38;100.00
26320;BME280;14024;52.226;5.200;2024-03-06T05:13:35;101985.59;;;5.33;100.00
26320;BME280;14024;52.226;5.200;2024-03-06T05:16:00;101984.72;;;5.32;100.00
26320;BME280;14024;52.226;5.200;2024-03-06T05:18:26;101982.16;;;5.28;100.00
26320;BME280;14024;52.226;5.200;2024-03-06T05:20:51;101987.47;;;5.25;100.00
26320;BME280;14024;52.226;5.200;2024-03-06T05:23:16;101985.72;;;5.24;100.00
26320;BME280;14024;52.226;5.200;2024-03-06T05:25:43;101991.06;;;5.18;100.00
26320;BME280;14024;52.226;5.200;2024-03-06T05:28:08;101996.31;;;5.16;100.00
26320;BME280;14024;52.226;5.200;2024-03-06T05:30:33;101991.09;;;5.12;100.00
26320;BME280;14024;52.226;5.200;2024-03-06T05:32:59;101995.47;;;5.10;100.00
26320;BME280;14024;52.226;5.200;2024-03-06T05:35:24;102012.13;;;5.12;100.00
26320;BME280;14024;52.226;5.200;2024-03-06T05:37:50;102014.78;;;5.09;100.00
26320;BME280;14024;52.226;5.200;2024-03-06T05:40:15;102021.00;;;4.99;100.00
26320;BME280;14024;52.226;5.200;2024-03-06T05:42:40;102015.75;;;4.99;100.00
26320;BME280;14024;52.226;5.200;2024-03-06T05:45:07;102020.13;;;4.97;100.00
26320;BME280;14024;52.226;5.200;2024-03-06T05:47:36;102033.31;;;4.93;100.00
26320;BME280;14024;52.226;5.200;2024-03-06T05:50:02;102029.88;;;4.82;100.00
26320;BME280;14024;52.226;5.200;2024-03-06T05:52:32;102029.94;;;4.76;100.00
26320;BME280;14024;52.226;5.200;2024-03-06T05:54:58;102036.13;;;4.69;100.00
26320;BME280;14024;52.226;5.200;2024-03-06T05:57:23;102038.81;;;4.60;100.00
26320;BME280;14024;52.226;5.200;2024-03-06T05:59:49;102040.63;;;4.54;100.00
26320;BME280;14024;52.226;5.200;2024-03-06T06:02:15;102042.41;;;4.50;100.00
26320;BME280;14024;52.226;5.200;2024-03-06T06:04:44;102055.53;;;4.50;100.00
26320;BME280;14024;52.226;5.200;2024-03-06T06:07:10;102052.03;;;4.46;100.00
26320;BME280;14024;52.226;5.200;2024-03-06T06:09:35;102059.88;;;4.51;100.00
26320;BME280;14024;52.226;5.200;2024-03-06T06:12:00;102057.28;;;4.49;100.00
26320;BME280;14024;52.226;5.200;2024-03-06T06:14:26;102059.03;;;4.47;100.00
26320;BME280;14024;52.226;5.200;2024-03-06T06:16:54;102061.66;;;4.46;100.00
26320;BME280;14024;52.226;5.200;2024-03-06T06:19:19;102065.19;;;4.42;100.00
26320;BME280;14024;52.226;5.200;2024-03-06T06:21:44;102071.31;;;4.42;100.00
26320;BME280;14024;52.226;5.200;2024-03-06T06:24:10;102078.31;;;4.45;100.00
26320;BME280;14024;52.226;5.200;2024-03-06T06:26:35;102083.53;;;4.46;100.00
26320;BME280;14024;52.226;5.200;2024-03-06T06:29:00;102080.94;;;4.45;100.00
26320;BME280;14024;52.226;5.200;2024-03-06T06:31:26;102084.41;;;4.47;100.00
26320;BME280;14024;52.226;5.200;2024-03-06T06:33:52;102084.41;;;4.47;100.00
26320;BME280;14024;52.226;5.200;2024-03-06T06:36:18;102089.63;;;4.53;100.00
26320;BME280;14024;52.226;5.200;2024-03-06T06:38:43;102094.00;;;4.53;100.00
26320;BME280;14024;52.226;5.200;2024-03-06T06:41:09;102100.16;;;4.50;100.00
26320;BME280;14024;52.226;5.200;2024-03-06T06:43:35;102102.75;;;4.53;100.00
26320;BME280;14024;52.226;5.200;2024-03-06T06:46:00;102109.75;;;4.51;100.00
26320;BME280;14024;52.226;5.200;2024-03-06T06:48:26;102114.16;;;4.49;100.00
26320;BME280;14024;52.226;5.200;2024-03-06T06:50:52;102118.53;;;4.50;100.00
26320;BME280;14024;52.226;5.200;2024-03-06T06:53:17;102110.66;;;4.50;100.00
26320;BME280;14024;52.226;5.200;2024-03-06T06:55:42;102116.75;;;4.52;100.00
26320;BME280;14024;52.226;5.200;2024-03-06T06:58:08;102120.22;;;4.56;100.00
26320;BME280;14024;52.226;5.200;2024-03-06T07:00:33;102122.84;;;4.57;100.00
26320;BME280;14024;52.226;5.200;2024-03-06T07:02:59;102122.00;;;4.54;100.00
26320;BME280;14024;52.226;5.200;2024-03-06T07:05:25;102128.13;;;4.54;100.00
26320;BME280;14024;52.226;5.200;2024-03-06T07:07:51;102129.88;;;4.52;100.00
26320;BME280;14024;52.226;5.200;2024-03-06T07:10:17;102131.59;;;4.56;100.00
26320;BME280;14024;52.226;5.200;2024-03-06T07:12:42;102138.63;;;4.54;100.00
26320;BME280;14024;52.226;5.200;2024-03-06T07:15:07;102142.13;;;4.59;100.00
26320;BME280;14024;52.226;5.200;2024-03-06T07:17:33;102141.19;;;4.66;100.00
26320;BME280;14024;52.226;5.200;2024-03-06T07:19:58;102145.53;;;4.70;100.00
26320;BME280;14024;52.226;5.200;2024-03-06T07:22:24;102146.41;;;4.71;100.00
26320;BME280;14024;52.226;5.200;2024-03-06T07:24:50;102150.75;;;4.79;100.00
26320;BME280;14024;52.226;5.200;2024-03-06T07:27:15;102155.94;;;4.88;100.00
26320;BME280;14024;52.226;5.200;2024-03-06T07:29:40;102158.50;;;4.96;100.00
26320;BME280;14024;52.226;5.200;2024-03-06T07:32:06;102162.88;;;4.99;100.00
26320;BME280;14024;52.226;5.200;2024-03-06T07:34:31;102164.56;;;5.06;100.00
26320;BME280;14024;52.226;5.200;2024-03-06T07:36:57;102162.75;;;5.14;100.00
26320;BME280;14024;52.226;5.200;2024-03-06T07:39:26;102175.84;;;5.21;100.00
26320;BME280;14024;52.226;5.200;2024-03-06T07:41:52;102171.44;;;5.25;100.00
26320;BME280;14024;52.226;5.200;2024-03-06T07:44:17;102183.56;;;5.44;100.00
26320;BME280;14024;52.226;5.200;2024-03-06T07:46:43;102187.91;;;5.47;100.00
26320;BME280;14024;52.226;5.200;2024-03-06T07:49:08;102188.78;;;5.47;100.00
26320;BME280;14024;52.226;5.200;2024-03-06T07:51:33;102186.94;;;5.58;100.00
26320;BME280;14024;52.226;5.200;2024-03-06T07:53:59;102193.88;;;5.65;100.00
26320;BME280;14024;52.226;5.200;2024-03-06T07:56:26;102194.69;;;5.75;100.00
26320;BME280;14024;52.226;5.200;2024-03-06T07:58:51;102199.88;;;5.82;100.00
26320;BME280;14024;52.226;5.200;2024-03-06T08:01:17;102196.28;;;5.94;100.00
26320;BME280;14024;52.226;5.200;2024-03-06T08:03:43;102199.72;;;6.02;100.00
26320;BME280;14024;52.226;5.200;2024-03-06T08:06:08;102207.47;;;6.16;100.00
26320;BME280;14024;52.226;5.200;2024-03-06T08:08:34;102195.13;;;6.19;100.00
26320;BME280;14024;52.226;5.200;2024-03-06T08:10:59;102196.72;;;6.33;100.00
26320;BME280;14024;52.226;5.200;2024-03-06T08:13:24;102201.91;;;6.40;100.00
26320;BME280;14024;52.226;5.200;2024-03-06T08:15:50;102196.63;;;6.40;100.00
26320;BME280;14024;52.226;5.200;2024-03-06T08:18:16;102207.22;;;6.37;100.00
26320;BME280;14024;52.226;5.200;2024-03-06T08:20:41;102204.53;;;6.40;100.00
26320;BME280;14024;52.226;5.200;2024-03-06T08:23:08;102205.34;;;6.45;100.00
26320;BME280;14024;52.226;5.200;2024-03-06T08:25:35;102206.22;;;6.44;100.00
26320;BME280;14024;52.226;5.200;2024-03-06T08:28:00;102211.44;;;6.49;100.00
26320;BME280;14024;52.226;5.200;2024-03-06T08:30:25;102206.22;;;6.44;100.00
26320;BME280;14024;52.226;5.200;2024-03-06T08:32:51;102217.69;;;6.42;100.00
26320;BME280;14024;52.226;5.200;2024-03-06T08:35:16;102222.84;;;6.52;100.00
26320;BME280;14024;52.226;5.200;2024-03-06T08:37:43;102229.91;;;6.47;100.00
26320;BME280;14024;52.226;5.200;2024-03-06T08:40:09;102233.38;;;6.52;100.00
26320;BME280;14024;52.226;5.200;2024-03-06T08:42:42;102232.56;;;6.47;100.00
26320;BME280;14024;52.226;5.200;2024-03-06T08:45:08;102234.19;;;6.57;100.00
26320;BME280;14024;52.226;5.200;2024-03-06T08:47:34;102243.81;;;6.60;100.00
26320;BME280;14024;52.226;5.200;2024-03-06T08:49:59;102237.63;;;6.62;100.00
26320;BME280;14024;52.226;5.200;2024-03-06T08:52:24;102243.75;;;6.66;100.00
26320;BME280;14024;52.226;5.200;2024-03-06T08:54:50;102245.44;;;6.70;100.00
26320;BME280;14024;52.226;5.200;2024-03-06T08:57:15;102247.22;;;6.68;100.00
26320;BME280;14024;52.226;5.200;2024-03-06T08:59:41;102249.56;;;6.89;100.00
26320;BME280;14024;52.226;5.200;2024-03-06T09:02:18;102251.19;;;7.02;100.00
26320;BME280;14024;52.226;5.200;2024-03-06T09:04:45;102245.72;;;7.14;100.00
26320;BME280;14024;52.226;5.200;2024-03-06T09:07:11;102254.38;;;7.23;100.00
26320;BME280;14024;52.226;5.200;2024-03-06T09:09:37;102258.72;;;7.27;100.00
26320;BME280;14024;52.226;5.200;2024-03-06T09:12:04;102269.06;;;7.40;100.00
26320;BME280;14024;52.226;5.200;2024-03-06T09:14:31;102266.25;;;7.52;100.00
26320;BME280;14024;52.226;5.200;2024-03-06T09:16:57;102270.44;;;7.66;100.00
26320;BME280;14024;52.226;5.200;2024-03-06T09:19:22;102273.88;;;7.71;100.00
26320;BME280;14024;52.226;5.200;2024-03-06T09:21:48;102282.59;;;7.76;100.00
26320;BME280;14024;52.226;5.200;2024-03-06T09:24:13;102276.31;;;7.83;100.00
26320;BME280;14024;52.226;5.200;2024-03-06T09:26:39;102284.13;;;7.89;100.00
26320;BME280;14024;52.226;5.200;2024-03-06T09:29:04;102282.28;;;7.94;100.00
26320;BME280;14024;52.226;5.200;2024-03-06T09:31:30;102290.13;;;7.98;100.00
26320;BME280;14024;52.226;5.200;2024-03-06T09:33:55;102287.25;;;8.11;100.00
26320;BME280;14024;52.226;5.200;2024-03-06T09:36:20;102291.56;;;8.16;100.00
26320;BME280;14024;52.226;5.200;2024-03-06T09:38:46;102298.41;;;8.29;100.00
26320;BME280;14024;52.226;5.200;2024-03-06T09:41:11;102301.16;;;8.23;100.00
26320;BME280;14024;52.226;5.200;2024-03-06T09:43:37;102309.03;;;8.25;100.00
26320;BME280;14024;52.226;5.200;2024-03-06T09:46:02;102305.34;;;8.36;100.00
26320;BME280;14024;52.226;5.200;2024-03-06T09:48:29;102313.44;;;8.24;100.00
26320;BME280;14024;52.226;5.200;2024-03-06T09:50:57;102310.78;;;8.24;100.00
26320;BME280;14024;52.226;5.200;2024-03-06T09:53:25;102314.28;;;8.28;100.00
26320;BME280;14024;52.226;5.200;2024-03-06T09:55:51;102315.16;;;8.27;100.00
26320;BME280;14024;52.226;5.200;2024-03-06T09:58:17;102319.59;;;8.25;100.00
26320;BME280;14024;52.226;5.200;2024-03-06T10:00:42;102328.25;;;8.34;100.00
26320;BME280;14024;52.226;5.200;2024-03-06T10:03:09;102322.03;;;8.38;100.00
26320;BME280;14024;52.226;5.200;2024-03-06T10:05:34;102321.84;;;8.47;100.00
26320;BME280;14024;52.226;5.200;2024-03-06T10:08:03;102325.13;;;8.62;100.00
26320;BME280;14024;52.226;5.200;2024-03-06T10:10:32;102324.13;;;8.67;100.00
26320;BME280;14024;52.226;5.200;2024-03-06T10:12:57;102329.25;;;8.76;100.00
26320;BME280;14024;52.226;5.200;2024-03-06T10:15:23;102329.88;;;8.89;100.00
26320;BME280;14024;52.226;5.200;2024-03-06T10:17:51;102329.50;;;9.07;100.00
26320;BME280;14024;52.226;5.200;2024-03-06T10:20:23;102334.50;;;9.19;100.00
26320;BME280;14024;52.226;5.200;2024-03-06T10:22:50;102335.94;;;9.35;100.00
26320;BME280;14024;52.226;5.200;2024-03-06T10:25:18;102340.19;;;9.43;100.00
26320;BME280;14024;52.226;5.200;2024-03-06T10:27:44;102335.31;;;9.63;100.00
26320;BME280;14024;52.226;5.200;2024-03-06T10:30:09;102339.66;;;9.65;100.00
26320;BME280;14024;52.226;5.200;2024-03-06T10:32:38;102341.00;;;9.83;100.00
26320;BME280;14024;52.226;5.200;2024-03-06T10:35:04;102335.78;;;9.80;100.00
26320;BME280;14024;52.226;5.200;2024-03-06T10:37:31;102337.25;;;9.93;100.00
26320;BME280;14024;52.226;5.200;2024-03-06T10:40:02;102334.50;;;9.96;100.00
26320;BME280;14024;52.226;5.200;2024-03-06T10:42:31;102339.44;;;10.11;100.00
26320;BME280;14024;52.226;5.200;2024-03-06T10:44:59;102342.88;;;10.15;100.00
26320;BME280;14024;52.226;5.200;2024-03-06T10:47:26;102334.75;;;10.22;100.00
26320;BME280;14024;52.226;5.200;2024-03-06T10:49:53;102345.97;;;10.34;100.00
26320;BME280;14024;52.226;5.200;2024-03-06T10:52:20;102344.63;;;10.51;100.00
26320;BME280;14024;52.226;5.200;2024-03-06T10:54:48;102344.38;;;10.60;100.00
26320;BME280;14024;52.226;5.200;2024-03-06T10:57:14;102345.81;;;10.72;100.00
26320;BME280;14024;52.226;5.200;2024-03-06T10:59:40;102350.91;;;10.80;100.00
26320;BME280;14024;52.226;5.200;2024-03-06T11:02:08;102349.13;;;10.80;100.00
26320;BME280;14024;52.226;5.200;2024-03-06T11:04:35;102347.25;;;10.84;100.00
26320;BME280;14024;52.226;5.200;2024-03-06T11:07:02;102348.28;;;10.78;100.00
26320;BME280;14024;52.226;5.200;2024-03-06T11:09:37;102350.97;;;10.77;100.00
26320;BME280;14024;52.226;5.200;2024-03-06T11:12:06;102350.28;;;10.70;100.00
26320;BME280;14024;52.226;5.200;2024-03-06T11:14:32;102349.56;;;10.63;100.00
26320;BME280;14024;52.226;5.200;2024-03-06T11:17:03;102355.44;;;10.76;100.00
26320;BME280;14024;52.226;5.200;2024-03-06T11:19:32;102350.13;;;10.76;100.00
26320;BME280;14024;52.226;5.200;2024-03-06T11:22:17;102351.59;;;10.86;99.72
26320;BME280;14024;52.226;5.200;2024-03-06T11:24:42;102351.34;;;10.95;99.25
26320;BME280;14024;52.226;5.200;2024-03-06T11:27:08;102351.41;;;10.94;99.18
26320;BME280;14024;52.226;5.200;2024-03-06T11:30:03;102353.97;;;10.97;100.00
26320;BME280;14024;52.226;5.200;2024-03-06T11:32:36;102346.75;;;11.02;100.00
26320;BME280;14024;52.226;5.200;2024-03-06T11:35:01;102352.69;;;11.10;99.87
26320;BME280;14024;52.226;5.200;2024-03-06T11:37:27;102351.66;;;11.15;100.00
26320;BME280;14024;52.226;5.200;2024-03-06T11:40:00;102353.31;;;11.19;96.95
26320;BME280;14024;52.226;5.200;2024-03-06T11:42:33;102349.78;;;11.19;97.35
26320;BME280;14024;52.226;5.200;2024-03-06T11:45:12;102349.81;;;11.47;97.38
26320;BME280;14024;52.226;5.200;2024-03-06T11:48:02;102352.72;;;11.67;96.57
26320;BME280;14024;52.226;5.200;2024-03-06T11:50:28;102356.13;;;11.72;95.50
26320;BME280;14024;52.226;5.200;2024-03-06T11:52:55;102362.16;;;11.79;96.19
26320;BME280;14024;52.226;5.200;2024-03-06T11:55:21;102357.50;;;11.85;94.42
26320;BME280;14024;52.226;5.200;2024-03-06T11:57:47;102363.28;;;11.70;94.77
26320;BME280;14024;52.226;5.200;2024-03-06T12:00:13;102369.91;;;11.55;94.42
26320;BME280;14024;52.226;5.200;2024-03-06T12:02:40;102363.88;;;11.50;94.60
26320;BME280;14024;52.226;5.200;2024-03-06T12:05:06;102365.97;;;11.39;94.62
26320;BME280;14024;52.226;5.200;2024-03-06T12:07:31;102361.53;;;11.40;96.12
26320;BME280;14024;52.226;5.200;2024-03-06T12:09:57;102363.38;;;11.38;95.67
26320;BME280;14024;52.226;5.200;2024-03-06T12:12:24;102367.94;;;11.33;94.54
26320;BME280;14024;52.226;5.200;2024-03-06T12:14:57;102367.97;;;11.31;92.99
26320;BME280;14024;52.226;5.200;2024-03-06T12:17:24;102371.63;;;11.29;93.31
26320;BME280;14024;52.226;5.200;2024-03-06T12:19:49;102370.13;;;11.18;93.51
26320;BME280;14024;52.226;5.200;2024-03-06T12:22:15;102384.31;;;11.17;93.56
26320;BME280;14024;52.226;5.200;2024-03-06T12:24:40;102365.72;;;11.17;93.99
26320;BME280;14024;52.226;5.200;2024-03-06T12:27:07;102378.19;;;11.15;93.90
26320;BME280;14024;52.226;5.200;2024-03-06T12:29:34;102380.00;;;11.13;94.25
26320;BME280;14024;52.226;5.200;2024-03-06T12:32:01;102379.13;;;11.13;93.97
26320;BME280;14024;52.226;5.200;2024-03-06T12:34:28;102378.47;;;11.06;93.56
26320;BME280;14024;52.226;5.200;2024-03-06T12:36:55;102376.59;;;11.08;94.53
26320;BME280;14024;52.226;5.200;2024-03-06T12:39:23;102381.44;;;10.94;94.97
26320;BME280;14024;52.226;5.200;2024-03-06T12:41:51;102377.63;;;11.04;94.55
26320;BME280;14024;52.226;5.200;2024-03-06T12:44:18;102379.31;;;11.07;95.27
26320;BME280;14024;52.226;5.200;2024-03-06T12:46:44;102373.22;;;11.03;95.53